Chama, NM

10:35 AM MDT on April 28, 2015 (GMT -0600)
Sheep Creek | | Change Station
CLOSE
Current Station
Personal Weather Station
Location: Antonito, CO
Elevation: 8622 ft
Nearby Weather Stations

Elev 8622 ft 37.08 °N, 106.30 °W | Updated 0 second ago

Clear
Clear
45.1 °F
Feels Like 45 °F
N
0.9
Wind Variable Wind from East
Gusts 3.0 mph

Today
High -- | Low -- °F
--% Chance of Precip.
Yesterday
High -- | Low -- °F
Precip. -- in
6:16 AM 7:52 PM
Waxing Gibbous, 75% visible
Pressure 30.34 in
Visibility 10.0 miles
Clouds Clear
Windchill 45 °F
Dew Point 28 °F
Humidity 51%
Rainfall 0.00 in
Snow Depth Not available.
UV 7 out of 12
Pollen 9.70 out of 12
Air Quality Not available.
Flu Activity Local Activity
METAR KPSO 281615Z AUTO 20005KT 10SM CLR 07/M03 A3034 RMK AO2 T00731028

More Conditions Fewer Conditions

Pressure 30.34 in
Visibility 10.0 miles
Clouds Clear
Windchill 45 °F
Dew Point 28 °F
Humidity 51%
Rainfall 0.00 in
Snow Depth Not available.
UV 7 out of 12
Pollen 9.70 out of 12
Air Quality Not available.
Flu Activity Local Activity
METAR KPSO 281615Z AUTO 20005KT 10SM CLR 07/M03 A3034 RMK AO2 T00731028

More Conditions Fewer Conditions

10-Day Weather Forecast

Almanac

Astronomy

Apr. 28, 2015 Rise Set
Actual Time
Civil Twilight
Nautical Twilight
Astronomical Twilight
Moon
Length of Visible Light
Length of Day
Tomorrow will be .
, % of the Moon is Illuminated

Today's Extremes

State Highs State Lows

Community

WunderPhotos

Upload Photos

1,817,695 photos uploaded!

WunderBlogs® & News

Nearby

Air Quality

  Air Quality AQ Index Pollutant
Not available.

Snow Depth

Station Depth Elevation

Earthquake Activity

City Distance Mag. Time & Date
Minimum magnitude displayed is 2.5.

Coastal Water Temperatures

Place Temperature

Stations

Nearby Weather Stations

Station Location Temp. Windchill Dew Point Humidity Wind Precip. Elev Updated Type